sensor_id;sensor_type;location;lat;lon;timestamp;P1;durP1;ratioP1;P2;durP2;ratioP2
19219;SDS011;9744;49.364;7.484;2023-01-08T00:01:16;12.45;;;6.75;;
19219;SDS011;9744;49.364;7.484;2023-01-08T00:03:43;20.42;;;6.47;;
19219;SDS011;9744;49.364;7.484;2023-01-08T00:06:11;12.00;;;6.03;;
19219;SDS011;9744;49.364;7.484;2023-01-08T00:08:39;12.05;;;6.18;;
19219;SDS011;9744;49.364;7.484;2023-01-08T00:11:08;13.23;;;6.65;;
19219;SDS011;9744;49.364;7.484;2023-01-08T00:13:36;9.65;;;5.70;;
19219;SDS011;9744;49.364;7.484;2023-01-08T00:16:04;8.30;;;6.05;;
19219;SDS011;9744;49.364;7.484;2023-01-08T00:18:32;11.05;;;6.35;;
19219;SDS011;9744;49.364;7.484;2023-01-08T00:20:59;9.73;;;6.18;;
19219;SDS011;9744;49.364;7.484;2023-01-08T00:23:27;9.52;;;6.50;;
19219;SDS011;9744;49.364;7.484;2023-01-08T00:25:54;12.23;;;6.88;;
19219;SDS011;9744;49.364;7.484;2023-01-08T00:28:23;11.85;;;6.55;;
19219;SDS011;9744;49.364;7.484;2023-01-08T00:30:50;11.63;;;6.50;;
19219;SDS011;9744;49.364;7.484;2023-01-08T00:33:17;9.38;;;6.55;;
19219;SDS011;9744;49.364;7.484;2023-01-08T00:35:45;13.35;;;7.10;;
19219;SDS011;9744;49.364;7.484;2023-01-08T00:38:12;9.38;;;6.63;;
19219;SDS011;9744;49.364;7.484;2023-01-08T00:40:39;9.48;;;5.97;;
19219;SDS011;9744;49.364;7.484;2023-01-08T00:43:06;10.45;;;6.10;;
19219;SDS011;9744;49.364;7.484;2023-01-08T00:45:35;12.05;;;6.63;;
19219;SDS011;9744;49.364;7.484;2023-01-08T00:48:03;12.75;;;6.90;;
19219;SDS011;9744;49.364;7.484;2023-01-08T00:50:30;11.70;;;6.57;;
19219;SDS011;9744;49.364;7.484;2023-01-08T00:52:57;12.15;;;7.22;;
19219;SDS011;9744;49.364;7.484;2023-01-08T00:55:25;12.90;;;6.85;;
19219;SDS011;9744;49.364;7.484;2023-01-08T00:57:52;10.25;;;6.72;;
19219;SDS011;9744;49.364;7.484;2023-01-08T01:00:20;11.10;;;6.75;;
19219;SDS011;9744;49.364;7.484;2023-01-08T01:02:49;12.30;;;7.10;;
19219;SDS011;9744;49.364;7.484;2023-01-08T01:05:16;10.40;;;7.13;;
19219;SDS011;9744;49.364;7.484;2023-01-08T01:07:43;9.25;;;6.07;;
19219;SDS011;9744;49.364;7.484;2023-01-08T01:10:11;13.88;;;6.65;;
19219;SDS011;9744;49.364;7.484;2023-01-08T01:12:40;14.35;;;6.68;;
19219;SDS011;9744;49.364;7.484;2023-01-08T01:15:09;14.80;;;7.03;;
19219;SDS011;9744;49.364;7.484;2023-01-08T01:17:38;9.32;;;6.70;;
19219;SDS011;9744;49.364;7.484;2023-01-08T01:20:10;12.20;;;7.22;;
19219;SDS011;9744;49.364;7.484;2023-01-08T01:22:39;9.02;;;6.55;;
19219;SDS011;9744;49.364;7.484;2023-01-08T01:25:08;12.48;;;6.68;;
19219;SDS011;9744;49.364;7.484;2023-01-08T01:27:35;9.55;;;6.72;;
19219;SDS011;9744;49.364;7.484;2023-01-08T01:30:02;11.52;;;7.45;;
19219;SDS011;9744;49.364;7.484;2023-01-08T01:32:30;10.32;;;6.88;;
19219;SDS011;9744;49.364;7.484;2023-01-08T01:34:57;12.77;;;7.28;;
19219;SDS011;9744;49.364;7.484;2023-01-08T01:37:26;10.63;;;7.35;;
19219;SDS011;9744;49.364;7.484;2023-01-08T01:39:53;12.80;;;7.57;;
19219;SDS011;9744;49.364;7.484;2023-01-08T01:42:22;12.18;;;7.68;;
19219;SDS011;9744;49.364;7.484;2023-01-08T01:45:16;15.45;;;7.90;;
19219;SDS011;9744;49.364;7.484;2023-01-08T01:47:47;10.25;;;7.82;;
19219;SDS011;9744;49.364;7.484;2023-01-08T01:50:19;12.73;;;7.97;;
19219;SDS011;9744;49.364;7.484;2023-01-08T01:52:54;14.55;;;8.43;;
19219;SDS011;9744;49.364;7.484;2023-01-08T01:55:26;11.05;;;7.90;;
19219;SDS011;9744;49.364;7.484;2023-01-08T01:57:56;13.40;;;7.95;;
19219;SDS011;9744;49.364;7.484;2023-01-08T02:00:28;14.52;;;8.18;;
19219;SDS011;9744;49.364;7.484;2023-01-08T02:02:57;12.25;;;8.75;;
19219;SDS011;9744;49.364;7.484;2023-01-08T02:05:26;15.23;;;8.70;;
19219;SDS011;9744;49.364;7.484;2023-01-08T02:08:01;12.82;;;8.70;;
19219;SDS011;9744;49.364;7.484;2023-01-08T02:10:34;15.30;;;9.20;;
19219;SDS011;9744;49.364;7.484;2023-01-08T02:13:09;14.13;;;9.35;;
19219;SDS011;9744;49.364;7.484;2023-01-08T02:15:41;17.90;;;9.13;;
19219;SDS011;9744;49.364;7.484;2023-01-08T02:18:18;15.43;;;9.48;;
19219;SDS011;9744;49.364;7.484;2023-01-08T02:20:48;17.33;;;10.02;;
19219;SDS011;9744;49.364;7.484;2023-01-08T02:23:24;18.27;;;10.32;;
19219;SDS011;9744;49.364;7.484;2023-01-08T02:26:13;16.42;;;10.73;;
19219;SDS011;9744;49.364;7.484;2023-01-08T02:28:44;22.58;;;11.35;;
19219;SDS011;9744;49.364;7.484;2023-01-08T02:31:15;20.15;;;11.65;;
19219;SDS011;9744;49.364;7.484;2023-01-08T02:33:42;17.60;;;10.38;;
19219;SDS011;9744;49.364;7.484;2023-01-08T02:36:14;18.48;;;11.68;;
19219;SDS011;9744;49.364;7.484;2023-01-08T02:38:50;17.70;;;11.80;;
19219;SDS011;9744;49.364;7.484;2023-01-08T02:41:29;20.38;;;12.40;;
19219;SDS011;9744;49.364;7.484;2023-01-08T02:44:07;22.60;;;12.52;;
19219;SDS011;9744;49.364;7.484;2023-01-08T02:46:38;21.23;;;11.48;;
19219;SDS011;9744;49.364;7.484;2023-01-08T02:49:07;18.73;;;11.77;;
19219;SDS011;9744;49.364;7.484;2023-01-08T02:51:39;21.85;;;11.20;;
19219;SDS011;9744;49.364;7.484;2023-01-08T02:54:09;20.52;;;11.65;;
19219;SDS011;9744;49.364;7.484;2023-01-08T02:56:42;22.25;;;11.45;;
19219;SDS011;9744;49.364;7.484;2023-01-08T02:59:12;22.00;;;11.48;;
19219;SDS011;9744;49.364;7.484;2023-01-08T03:01:40;19.50;;;11.80;;
19219;SDS011;9744;49.364;7.484;2023-01-08T03:04:10;18.58;;;11.57;;
19219;SDS011;9744;49.364;7.484;2023-01-08T03:06:42;21.33;;;11.95;;
19219;SDS011;9744;49.364;7.484;2023-01-08T03:09:09;17.15;;;11.20;;
19219;SDS011;9744;49.364;7.484;2023-01-08T03:11:37;19.60;;;11.65;;
19219;SDS011;9744;49.364;7.484;2023-01-08T03:14:13;25.15;;;12.27;;
19219;SDS011;9744;49.364;7.484;2023-01-08T03:16:46;19.20;;;12.88;;
19219;SDS011;9744;49.364;7.484;2023-01-08T03:19:18;24.52;;;13.10;;
19219;SDS011;9744;49.364;7.484;2023-01-08T03:21:49;23.75;;;13.90;;
19219;SDS011;9744;49.364;7.484;2023-01-08T03:24:18;24.20;;;13.13;;
19219;SDS011;9744;49.364;7.484;2023-01-08T03:26:47;28.05;;;13.80;;
19219;SDS011;9744;49.364;7.484;2023-01-08T03:29:18;24.90;;;13.93;;
19219;SDS011;9744;49.364;7.484;2023-01-08T03:31:49;26.52;;;13.85;;
19219;SDS011;9744;49.364;7.484;2023-01-08T03:34:19;21.25;;;13.27;;
19219;SDS011;9744;49.364;7.484;2023-01-08T03:36:49;21.00;;;11.93;;
19219;SDS011;9744;49.364;7.484;2023-01-08T03:39:20;22.63;;;12.63;;
19219;SDS011;9744;49.364;7.484;2023-01-08T03:41:51;20.55;;;10.82;;
19219;SDS011;9744;49.364;7.484;2023-01-08T03:44:23;16.77;;;11.73;;
19219;SDS011;9744;49.364;7.484;2023-01-08T03:46:51;23.85;;;11.90;;
19219;SDS011;9744;49.364;7.484;2023-01-08T03:49:21;17.85;;;11.95;;
19219;SDS011;9744;49.364;7.484;2023-01-08T03:51:50;17.45;;;11.93;;
19219;SDS011;9744;49.364;7.484;2023-01-08T03:54:18;20.50;;;11.48;;
19219;SDS011;9744;49.364;7.484;2023-01-08T03:56:47;14.75;;;9.93;;
19219;SDS011;9744;49.364;7.484;2023-01-08T03:59:14;11.30;;;7.80;;
19219;SDS011;9744;49.364;7.484;2023-01-08T04:01:43;17.67;;;9.85;;
19219;SDS011;9744;49.364;7.484;2023-01-08T04:04:10;14.50;;;8.48;;
19219;SDS011;9744;49.364;7.484;2023-01-08T04:06:38;15.73;;;8.70;;
19219;SDS011;9744;49.364;7.484;2023-01-08T04:09:05;14.13;;;8.80;;
19219;SDS011;9744;49.364;7.484;2023-01-08T04:11:32;14.85;;;8.77;;
19219;SDS011;9744;49.364;7.484;2023-01-08T04:13:59;13.10;;;8.00;;
19219;SDS011;9744;49.364;7.484;2023-01-08T04:16:27;15.40;;;8.40;;
19219;SDS011;9744;49.364;7.484;2023-01-08T04:18:55;14.82;;;8.15;;
19219;SDS011;9744;49.364;7.484;2023-01-08T04:21:22;11.55;;;8.82;;
19219;SDS011;9744;49.364;7.484;2023-01-08T04:23:49;27.88;;;9.23;;
19219;SDS011;9744;49.364;7.484;2023-01-08T04:26:17;11.60;;;8.73;;
19219;SDS011;9744;49.364;7.484;2023-01-08T04:28:44;14.55;;;9.30;;
19219;SDS011;9744;49.364;7.484;2023-01-08T04:31:11;15.60;;;7.88;;
19219;SDS011;9744;49.364;7.484;2023-01-08T04:33:38;10.52;;;7.45;;
19219;SDS011;9744;49.364;7.484;2023-01-08T04:36:07;11.55;;;8.15;;
19219;SDS011;9744;49.364;7.484;2023-01-08T04:38:35;12.80;;;6.90;;
19219;SDS011;9744;49.364;7.484;2023-01-08T04:41:02;13.32;;;8.10;;
19219;SDS011;9744;49.364;7.484;2023-01-08T04:43:29;10.88;;;6.43;;
19219;SDS011;9744;49.364;7.484;2023-01-08T04:45:57;12.60;;;7.05;;
19219;SDS011;9744;49.364;7.484;2023-01-08T04:48:25;9.85;;;7.13;;
19219;SDS011;9744;49.364;7.484;2023-01-08T04:50:52;12.40;;;6.53;;
19219;SDS011;9744;49.364;7.484;2023-01-08T04:53:20;8.35;;;5.47;;
19219;SDS011;9744;49.364;7.484;2023-01-08T04:55:48;8.15;;;4.65;;
19219;SDS011;9744;49.364;7.484;2023-01-08T04:58:15;5.45;;;3.63;;
19219;SDS011;9744;49.364;7.484;2023-01-08T05:00:42;6.47;;;3.80;;
19219;SDS011;9744;49.364;7.484;2023-01-08T05:03:09;5.20;;;3.42;;
19219;SDS011;9744;49.364;7.484;2023-01-08T05:05:36;3.55;;;3.10;;
19219;SDS011;9744;49.364;7.484;2023-01-08T05:08:04;4.15;;;3.30;;
19219;SDS011;9744;49.364;7.484;2023-01-08T05:10:32;3.67;;;2.67;;
19219;SDS011;9744;49.364;7.484;2023-01-08T05:13:00;4.50;;;3.30;;
19219;SDS011;9744;49.364;7.484;2023-01-08T05:15:27;3.63;;;3.10;;
19219;SDS011;9744;49.364;7.484;2023-01-08T05:17:57;3.42;;;2.60;;
19219;SDS011;9744;49.364;7.484;2023-01-08T05:20:25;3.17;;;2.72;;
19219;SDS011;9744;49.364;7.484;2023-01-08T05:22:52;4.18;;;2.92;;
19219;SDS011;9744;49.364;7.484;2023-01-08T05:25:20;5.43;;;3.30;;
19219;SDS011;9744;49.364;7.484;2023-01-08T05:27:49;6.05;;;3.40;;
19219;SDS011;9744;49.364;7.484;2023-01-08T05:30:16;4.22;;;3.47;;
19219;SDS011;9744;49.364;7.484;2023-01-08T05:32:44;6.03;;;3.50;;
19219;SDS011;9744;49.364;7.484;2023-01-08T05:35:11;7.80;;;4.00;;
19219;SDS011;9744;49.364;7.484;2023-01-08T05:37:38;5.18;;;3.88;;
19219;SDS011;9744;49.364;7.484;2023-01-08T05:40:05;6.47;;;3.83;;
19219;SDS011;9744;49.364;7.484;2023-01-08T05:42:33;6.70;;;4.30;;
19219;SDS011;9744;49.364;7.484;2023-01-08T05:45:03;6.88;;;4.47;;
19219;SDS011;9744;49.364;7.484;2023-01-08T05:47:31;8.60;;;4.53;;
19219;SDS011;9744;49.364;7.484;2023-01-08T05:49:59;5.18;;;4.30;;
19219;SDS011;9744;49.364;7.484;2023-01-08T05:52:27;7.85;;;3.70;;
19219;SDS011;9744;49.364;7.484;2023-01-08T05:54:54;5.40;;;4.13;;
19219;SDS011;9744;49.364;7.484;2023-01-08T05:57:21;9.50;;;3.88;;
19219;SDS011;9744;49.364;7.484;2023-01-08T05:59:48;7.88;;;3.83;;
19219;SDS011;9744;49.364;7.484;2023-01-08T06:02:17;4.00;;;3.25;;
19219;SDS011;9744;49.364;7.484;2023-01-08T06:04:44;6.78;;;4.00;;
19219;SDS011;9744;49.364;7.484;2023-01-08T06:07:11;6.15;;;3.92;;
19219;SDS011;9744;49.364;7.484;2023-01-08T06:09:38;6.55;;;3.90;;
19219;SDS011;9744;49.364;7.484;2023-01-08T06:12:06;4.80;;;3.70;;
19219;SDS011;9744;49.364;7.484;2023-01-08T06:14:33;5.93;;;3.95;;
19219;SDS011;9744;49.364;7.484;2023-01-08T06:17:00;9.82;;;4.07;;
19219;SDS011;9744;49.364;7.484;2023-01-08T06:19:29;9.10;;;4.53;;
19219;SDS011;9744;49.364;7.484;2023-01-08T06:21:56;7.47;;;4.70;;
19219;SDS011;9744;49.364;7.484;2023-01-08T06:24:23;10.07;;;5.15;;
19219;SDS011;9744;49.364;7.484;2023-01-08T06:26:50;7.38;;;5.07;;
19219;SDS011;9744;49.364;7.484;2023-01-08T06:29:18;7.85;;;4.90;;
19219;SDS011;9744;49.364;7.484;2023-01-08T06:31:45;8.18;;;5.43;;
19219;SDS011;9744;49.364;7.484;2023-01-08T06:34:12;8.13;;;5.10;;
19219;SDS011;9744;49.364;7.484;2023-01-08T06:36:41;12.10;;;5.57;;
19219;SDS011;9744;49.364;7.484;2023-01-08T06:39:08;7.53;;;5.50;;
19219;SDS011;9744;49.364;7.484;2023-01-08T06:41:35;8.32;;;5.38;;
19219;SDS011;9744;49.364;7.484;2023-01-08T06:44:02;6.85;;;4.88;;
19219;SDS011;9744;49.364;7.484;2023-01-08T06:46:30;7.55;;;5.50;;
19219;SDS011;9744;49.364;7.484;2023-01-08T06:49:02;7.18;;;4.88;;
19219;SDS011;9744;49.364;7.484;2023-01-08T06:51:29;9.57;;;5.60;;
19219;SDS011;9744;49.364;7.484;2023-01-08T06:53:58;8.13;;;6.07;;
19219;SDS011;9744;49.364;7.484;2023-01-08T06:56:25;10.05;;;6.22;;
19219;SDS011;9744;49.364;7.484;2023-01-08T06:58:53;9.13;;;6.22;;
19219;SDS011;9744;49.364;7.484;2023-01-08T07:01:20;13.07;;;8.18;;
19219;SDS011;9744;49.364;7.484;2023-01-08T07:03:47;20.45;;;11.18;;
19219;SDS011;9744;49.364;7.484;2023-01-08T07:06:15;18.40;;;10.48;;
19219;SDS011;9744;49.364;7.484;2023-01-08T07:08:44;21.35;;;12.18;;
19219;SDS011;9744;49.364;7.484;2023-01-08T07:11:13;20.77;;;12.45;;
19219;SDS011;9744;49.364;7.484;2023-01-08T07:13:41;11.38;;;7.30;;
19219;SDS011;9744;49.364;7.484;2023-01-08T07:16:09;11.68;;;6.75;;
19219;SDS011;9744;49.364;7.484;2023-01-08T07:18:38;11.45;;;7.30;;
19219;SDS011;9744;49.364;7.484;2023-01-08T07:21:06;13.63;;;6.85;;
19219;SDS011;9744;49.364;7.484;2023-01-08T07:23:34;12.90;;;7.30;;
19219;SDS011;9744;49.364;7.484;2023-01-08T07:26:03;13.48;;;7.35;;
19219;SDS011;9744;49.364;7.484;2023-01-08T07:28:33;10.15;;;6.85;;
19219;SDS011;9744;49.364;7.484;2023-01-08T07:31:03;14.50;;;8.43;;
19219;SDS011;9744;49.364;7.484;2023-01-08T07:33:30;15.75;;;10.25;;
19219;SDS011;9744;49.364;7.484;2023-01-08T07:35:58;11.32;;;6.18;;
19219;SDS011;9744;49.364;7.484;2023-01-08T07:38:25;13.35;;;7.95;;
19219;SDS011;9744;49.364;7.484;2023-01-08T07:40:53;90.47;;;10.48;;
19219;SDS011;9744;49.364;7.484;2023-01-08T07:43:20;168.43;;;14.07;;
19219;SDS011;9744;49.364;7.484;2023-01-08T07:45:48;14.00;;;9.25;;
19219;SDS011;9744;49.364;7.484;2023-01-08T07:48:15;9.50;;;6.07;;
19219;SDS011;9744;49.364;7.484;2023-01-08T07:50:43;36.72;;;7.75;;
19219;SDS011;9744;49.364;7.484;2023-01-08T07:53:10;13.65;;;8.45;;
19219;SDS011;9744;49.364;7.484;2023-01-08T07:55:41;10.38;;;7.13;;
19219;SDS011;9744;49.364;7.484;2023-01-08T07:58:08;12.18;;;7.65;;
19219;SDS011;9744;49.364;7.484;2023-01-08T08:00:36;17.27;;;8.30;;
19219;SDS011;9744;49.364;7.484;2023-01-08T08:03:06;11.38;;;8.60;;
19219;SDS011;9744;49.364;7.484;2023-01-08T08:05:35;14.65;;;9.45;;
19219;SDS011;9744;49.364;7.484;2023-01-08T08:08:06;10.43;;;6.50;;
19219;SDS011;9744;49.364;7.484;2023-01-08T08:10:35;13.30;;;7.35;;
19219;SDS011;9744;49.364;7.484;2023-01-08T08:13:02;17.10;;;11.77;;
19219;SDS011;9744;49.364;7.484;2023-01-08T08:15:29;21.90;;;12.98;;
19219;SDS011;9744;49.364;7.484;2023-01-08T08:17:56;22.33;;;13.50;;
19219;SDS011;9744;49.364;7.484;2023-01-08T08:20:25;19.98;;;10.35;;
19219;SDS011;9744;49.364;7.484;2023-01-08T08:22:58;31.52;;;16.05;;
19219;SDS011;9744;49.364;7.484;2023-01-08T08:25:26;14.85;;;7.57;;
19219;SDS011;9744;49.364;7.484;2023-01-08T08:27:55;12.05;;;7.07;;
19219;SDS011;9744;49.364;7.484;2023-01-08T08:30:22;16.08;;;6.75;;
19219;SDS011;9744;49.364;7.484;2023-01-08T08:32:51;11.27;;;6.93;;
19219;SDS011;9744;49.364;7.484;2023-01-08T08:35:18;15.48;;;8.45;;
19219;SDS011;9744;49.364;7.484;2023-01-08T08:37:47;15.55;;;8.30;;
19219;SDS011;9744;49.364;7.484;2023-01-08T08:40:14;28.08;;;16.13;;
19219;SDS011;9744;49.364;7.484;2023-01-08T08:42:42;28.10;;;15.02;;
19219;SDS011;9744;49.364;7.484;2023-01-08T08:45:09;19.55;;;9.25;;
19219;SDS011;9744;49.364;7.484;2023-01-08T08:47:36;15.63;;;7.70;;
19219;SDS011;9744;49.364;7.484;2023-01-08T08:50:04;12.48;;;7.03;;
19219;SDS011;9744;49.364;7.484;2023-01-08T08:52:32;47.40;;;9.05;;
19219;SDS011;9744;49.364;7.484;2023-01-08T08:55:03;10.85;;;6.65;;
19219;SDS011;9744;49.364;7.484;2023-01-08T08:57:31;12.02;;;6.88;;
19219;SDS011;9744;49.364;7.484;2023-01-08T08:59:58;17.63;;;9.48;;
19219;SDS011;9744;49.364;7.484;2023-01-08T09:02:25;18.83;;;9.57;;
19219;SDS011;9744;49.364;7.484;2023-01-08T09:04:52;13.55;;;8.25;;
19219;SDS011;9744;49.364;7.484;2023-01-08T09:07:19;13.48;;;6.90;;
19219;SDS011;9744;49.364;7.484;2023-01-08T09:09:47;13.65;;;7.70;;
19219;SDS011;9744;49.364;7.484;2023-01-08T09:12:15;11.32;;;6.20;;
19219;SDS011;9744;49.364;7.484;2023-01-08T09:14:43;10.48;;;5.80;;
19219;SDS011;9744;49.364;7.484;2023-01-08T09:17:11;12.13;;;6.10;;
19219;SDS011;9744;49.364;7.484;2023-01-08T09:19:38;16.13;;;8.40;;
19219;SDS011;9744;49.364;7.484;2023-01-08T09:22:05;12.40;;;7.80;;
19219;SDS011;9744;49.364;7.484;2023-01-08T09:24:33;14.00;;;7.03;;
19219;SDS011;9744;49.364;7.484;2023-01-08T09:27:00;11.45;;;6.72;;
19219;SDS011;9744;49.364;7.484;2023-01-08T09:29:28;15.23;;;8.15;;
19219;SDS011;9744;49.364;7.484;2023-01-08T09:31:55;26.40;;;12.85;;
19219;SDS011;9744;49.364;7.484;2023-01-08T09:34:24;14.02;;;7.18;;
19219;SDS011;9744;49.364;7.484;2023-01-08T09:36:52;11.55;;;6.40;;
19219;SDS011;9744;49.364;7.484;2023-01-08T09:39:19;12.60;;;6.43;;
19219;SDS011;9744;49.364;7.484;2023-01-08T09:41:46;13.93;;;7.25;;
19219;SDS011;9744;49.364;7.484;2023-01-08T09:44:15;10.15;;;6.25;;
19219;SDS011;9744;49.364;7.484;2023-01-08T09:46:47;9.63;;;6.00;;
19219;SDS011;9744;49.364;7.484;2023-01-08T09:49:16;10.45;;;6.43;;
19219;SDS011;9744;49.364;7.484;2023-01-08T09:51:48;12.30;;;6.32;;
19219;SDS011;9744;49.364;7.484;2023-01-08T09:54:15;10.68;;;6.60;;
19219;SDS011;9744;49.364;7.484;2023-01-08T09:56:43;12.77;;;6.50;;
19219;SDS011;9744;49.364;7.484;2023-01-08T09:59:12;6.53;;;4.97;;
19219;SDS011;9744;49.364;7.484;2023-01-08T10:01:42;9.07;;;5.13;;
19219;SDS011;9744;49.364;7.484;2023-01-08T10:04:13;6.70;;;5.28;;
19219;SDS011;9744;49.364;7.484;2023-01-08T10:06:45;9.88;;;5.18;;
19219;SDS011;9744;49.364;7.484;2023-01-08T10:09:16;8.82;;;5.05;;
19219;SDS011;9744;49.364;7.484;2023-01-08T10:11:46;10.90;;;6.88;;
19219;SDS011;9744;49.364;7.484;2023-01-08T10:14:18;10.60;;;6.80;;
19219;SDS011;9744;49.364;7.484;2023-01-08T10:16:50;11.77;;;5.55;;
19219;SDS011;9744;49.364;7.484;2023-01-08T10:19:20;8.63;;;6.68;;
19219;SDS011;9744;49.364;7.484;2023-01-08T10:21:48;8.70;;;5.13;;
19219;SDS011;9744;49.364;7.484;2023-01-08T10:24:16;7.85;;;4.70;;
19219;SDS011;9744;49.364;7.484;2023-01-08T10:27:03;6.28;;;4.65;;
19219;SDS011;9744;49.364;7.484;2023-01-08T10:29:31;7.60;;;4.30;;
19219;SDS011;9744;49.364;7.484;2023-01-08T10:31:58;5.93;;;4.40;;
19219;SDS011;9744;49.364;7.484;2023-01-08T10:34:40;6.50;;;3.80;;
19219;SDS011;9744;49.364;7.484;2023-01-08T10:37:14;8.07;;;4.30;;
19219;SDS011;9744;49.364;7.484;2023-01-08T10:39:48;8.75;;;4.43;;
19219;SDS011;9744;49.364;7.484;2023-01-08T10:42:17;5.78;;;3.83;;
19219;SDS011;9744;49.364;7.484;2023-01-08T10:44:56;3.90;;;3.13;;
19219;SDS011;9744;49.364;7.484;2023-01-08T10:47:26;4.88;;;2.97;;
19219;SDS011;9744;49.364;7.484;2023-01-08T10:50:00;6.82;;;3.47;;
19219;SDS011;9744;49.364;7.484;2023-01-08T10:52:30;6.30;;;4.43;;
19219;SDS011;9744;49.364;7.484;2023-01-08T10:55:10;6.38;;;4.28;;
19219;SDS011;9744;49.364;7.484;2023-01-08T10:57:39;7.78;;;4.80;;
19219;SDS011;9744;49.364;7.484;2023-01-08T11:00:21;4.90;;;3.90;;
19219;SDS011;9744;49.364;7.484;2023-01-08T11:02:49;5.43;;;3.10;;
19219;SDS011;9744;49.364;7.484;2023-01-08T11:05:18;8.10;;;3.08;;
19219;SDS011;9744;49.364;7.484;2023-01-08T11:07:56;6.13;;;2.88;;
19219;SDS011;9744;49.364;7.484;2023-01-08T11:10:25;6.38;;;3.70;;
19219;SDS011;9744;49.364;7.484;2023-01-08T11:12:55;4.97;;;3.33;;
19219;SDS011;9744;49.364;7.484;2023-01-08T11:15:28;3.50;;;2.83;;
19219;SDS011;9744;49.364;7.484;2023-01-08T11:18:04;6.35;;;3.42;;
19219;SDS011;9744;49.364;7.484;2023-01-08T11:20:34;3.85;;;2.80;;
19219;SDS011;9744;49.364;7.484;2023-01-08T11:23:05;4.25;;;2.50;;
19219;SDS011;9744;49.364;7.484;2023-01-08T11:25:38;3.30;;;2.60;;
19219;SDS011;9744;49.364;7.484;2023-01-08T11:28:08;3.38;;;2.10;;
19219;SDS011;9744;49.364;7.484;2023-01-08T11:30:42;4.57;;;2.30;;
19219;SDS011;9744;49.364;7.484;2023-01-08T11:33:20;4.03;;;2.60;;
19219;SDS011;9744;49.364;7.484;2023-01-08T11:35:55;5.43;;;4.32;;
19219;SDS011;9744;49.364;7.484;2023-01-08T11:38:29;2.95;;;2.47;;
19219;SDS011;9744;49.364;7.484;2023-01-08T11:40:58;6.32;;;2.00;;
19219;SDS011;9744;49.364;7.484;2023-01-08T11:43:37;4.18;;;2.05;;
19219;SDS011;9744;49.364;7.484;2023-01-08T11:46:15;4.45;;;2.20;;
19219;SDS011;9744;49.364;7.484;2023-01-08T11:48:55;4.18;;;2.72;;
19219;SDS011;9744;49.364;7.484;2023-01-08T11:51:35;3.28;;;2.50;;
19219;SDS011;9744;49.364;7.484;2023-01-08T11:54:14;3.20;;;1.80;;
19219;SDS011;9744;49.364;7.484;2023-01-08T11:56:56;2.97;;;1.90;;
19219;SDS011;9744;49.364;7.484;2023-01-08T11:59:47;5.15;;;1.92;;
19219;SDS011;9744;49.364;7.484;2023-01-08T12:02:32;2.50;;;1.70;;
19219;SDS011;9744;49.364;7.484;2023-01-08T12:05:24;3.17;;;2.25;;
19219;SDS011;9744;49.364;7.484;2023-01-08T12:08:00;2.10;;;1.90;;
19219;SDS011;9744;49.364;7.484;2023-01-08T12:10:39;4.32;;;2.33;;
19219;SDS011;9744;49.364;7.484;2023-01-08T12:13:24;3.97;;;2.42;;
19219;SDS011;9744;49.364;7.484;2023-01-08T12:16:05;2.95;;;2.30;;
19219;SDS011;9744;49.364;7.484;2023-01-08T12:18:47;5.85;;;2.85;;
19219;SDS011;9744;49.364;7.484;2023-01-08T12:21:39;2.78;;;2.47;;
19219;SDS011;9744;49.364;7.484;2023-01-08T12:24:17;6.18;;;3.40;;
19219;SDS011;9744;49.364;7.484;2023-01-08T12:26:57;3.20;;;2.20;;
19219;SDS011;9744;49.364;7.484;2023-01-08T12:29:36;3.67;;;2.47;;
19219;SDS011;9744;49.364;7.484;2023-01-08T12:32:20;4.90;;;2.63;;
19219;SDS011;9744;49.364;7.484;2023-01-08T12:34:53;6.78;;;4.25;;
19219;SDS011;9744;49.364;7.484;2023-01-08T12:37:26;4.15;;;2.53;;
19219;SDS011;9744;49.364;7.484;2023-01-08T12:39:59;4.13;;;2.50;;
19219;SDS011;9744;49.364;7.484;2023-01-08T12:42:32;3.60;;;2.67;;
19219;SDS011;9744;49.364;7.484;2023-01-08T12:45:03;5.50;;;2.58;;
19219;SDS011;9744;49.364;7.484;2023-01-08T12:47:38;4.25;;;2.72;;
19219;SDS011;9744;49.364;7.484;2023-01-08T12:50:16;5.53;;;2.90;;
19219;SDS011;9744;49.364;7.484;2023-01-08T12:52:53;6.35;;;3.13;;
19219;SDS011;9744;49.364;7.484;2023-01-08T12:55:29;8.82;;;3.78;;
19219;SDS011;9744;49.364;7.484;2023-01-08T12:58:06;5.95;;;3.38;;
19219;SDS011;9744;49.364;7.484;2023-01-08T13:00:44;4.28;;;2.63;;
19219;SDS011;9744;49.364;7.484;2023-01-08T13:03:18;4.47;;;2.58;;
19219;SDS011;9744;49.364;7.484;2023-01-08T13:05:50;7.38;;;2.67;;
19219;SDS011;9744;49.364;7.484;2023-01-08T13:08:21;2.03;;;1.60;;
19219;SDS011;9744;49.364;7.484;2023-01-08T13:10:56;5.10;;;2.55;;
19219;SDS011;9744;49.364;7.484;2023-01-08T13:13:25;6.10;;;3.08;;
19219;SDS011;9744;49.364;7.484;2023-01-08T13:16:04;11.32;;;4.13;;
19219;SDS011;9744;49.364;7.484;2023-01-08T13:18:52;6.40;;;3.55;;
19219;SDS011;9744;49.364;7.484;2023-01-08T13:21:30;5.15;;;2.63;;
19219;SDS011;9744;49.364;7.484;2023-01-08T13:24:01;3.72;;;2.53;;
19219;SDS011;9744;49.364;7.484;2023-01-08T13:26:31;7.72;;;2.00;;
19219;SDS011;9744;49.364;7.484;2023-01-08T13:31:49;2.85;;;1.83;;
19219;SDS011;9744;49.364;7.484;2023-01-08T13:34:18;3.50;;;1.85;;
19219;SDS011;9744;49.364;7.484;2023-01-08T13:36:54;3.30;;;1.63;;
19219;SDS011;9744;49.364;7.484;2023-01-08T13:39:22;4.55;;;1.98;;
19219;SDS011;9744;49.364;7.484;2023-01-08T13:41:59;5.82;;;3.33;;
19219;SDS011;9744;49.364;7.484;2023-01-08T13:44:33;4.78;;;2.65;;
19219;SDS011;9744;49.364;7.484;2023-01-08T13:47:14;4.32;;;2.08;;
19219;SDS011;9744;49.364;7.484;2023-01-08T13:49:45;6.78;;;1.33;;
19219;SDS011;9744;49.364;7.484;2023-01-08T13:54:57;1.83;;;1.40;;
19219;SDS011;9744;49.364;7.484;2023-01-08T14:06:05;5.70;;;2.97;;
19219;SDS011;9744;49.364;7.484;2023-01-08T14:11:38;5.63;;;2.83;;
19219;SDS011;9744;49.364;7.484;2023-01-08T14:14:35;4.05;;;2.15;;
19219;SDS011;9744;49.364;7.484;2023-01-08T14:22:58;2.28;;;1.90;;
19219;SDS011;9744;49.364;7.484;2023-01-08T14:25:26;4.57;;;1.65;;
19219;SDS011;9744;49.364;7.484;2023-01-08T14:27:55;3.70;;;1.58;;
19219;SDS011;9744;49.364;7.484;2023-01-08T14:30:25;3.22;;;1.67;;
19219;SDS011;9744;49.364;7.484;2023-01-08T14:32:53;5.78;;;2.20;;
19219;SDS011;9744;49.364;7.484;2023-01-08T14:35:25;4.13;;;1.90;;
19219;SDS011;9744;49.364;7.484;2023-01-08T14:37:57;7.72;;;2.72;;
19219;SDS011;9744;49.364;7.484;2023-01-08T14:40:27;7.15;;;3.22;;
19219;SDS011;9744;49.364;7.484;2023-01-08T14:42:57;6.10;;;3.33;;
19219;SDS011;9744;49.364;7.484;2023-01-08T14:45:30;5.28;;;3.22;;
19219;SDS011;9744;49.364;7.484;2023-01-08T14:47:58;6.63;;;2.40;;
19219;SDS011;9744;49.364;7.484;2023-01-08T14:50:34;5.22;;;2.40;;
19219;SDS011;9744;49.364;7.484;2023-01-08T14:53:04;3.40;;;2.10;;
19219;SDS011;9744;49.364;7.484;2023-01-08T14:55:34;3.22;;;1.90;;
19219;SDS011;9744;49.364;7.484;2023-01-08T14:58:08;2.85;;;1.77;;
19219;SDS011;9744;49.364;7.484;2023-01-08T15:00:41;2.20;;;1.70;;
19219;SDS011;9744;49.364;7.484;2023-01-08T15:03:29;5.10;;;2.08;;
19219;SDS011;9744;49.364;7.484;2023-01-08T15:05:58;2.58;;;1.55;;
19219;SDS011;9744;49.364;7.484;2023-01-08T15:08:26;2.58;;;2.10;;
19219;SDS011;9744;49.364;7.484;2023-01-08T15:10:59;2.75;;;1.83;;
19219;SDS011;9744;49.364;7.484;2023-01-08T15:13:31;5.38;;;1.70;;
19219;SDS011;9744;49.364;7.484;2023-01-08T15:16:04;2.58;;;1.70;;
19219;SDS011;9744;49.364;7.484;2023-01-08T15:18:34;4.38;;;3.10;;
19219;SDS011;9744;49.364;7.484;2023-01-08T15:21:09;4.28;;;2.00;;
19219;SDS011;9744;49.364;7.484;2023-01-08T15:23:45;6.03;;;1.98;;
19219;SDS011;9744;49.364;7.484;2023-01-08T15:26:16;3.45;;;1.75;;
19219;SDS011;9744;49.364;7.484;2023-01-08T15:28:48;6.45;;;3.35;;
19219;SDS011;9744;49.364;7.484;2023-01-08T15:31:23;2.45;;;1.95;;
19219;SDS011;9744;49.364;7.484;2023-01-08T15:33:52;1.58;;;1.48;;
19219;SDS011;9744;49.364;7.484;2023-01-08T15:36:19;3.63;;;2.03;;